SEGS

Seymour Airport

Airport
ICAO code
SEGS
IATA Code
GPS
Summary
ICAO Region
CARSAM
ICAO Territory
Location

, Galapagos

Serving
Galapagos
Elevation
207 ft
Coordinates
0° 27' 14" S , 90° 15' 57" W
Metar
Observation
SEGS 262200Z 14019KT 9999 SCT023 23/17 Q1011 RMK A2987
Station
SEYMOUR(EQ-AFB/C
Date/Time
2022-09-26 22:00:00
Wind direction
140°
Wind speed
19 kts
Lowest cloud amount
scattered clouds
Temperature
23°C
Dew point
17°C
Humidity
69%
QNH
1011 hPa
Weather condition
n/a

Runways

Designator Length Width Surface Rops
14/32 2401 35 ASP Yes/Yes

Airport map

Aerial View

SKYbrary Partners:

Safety knowledge contributed by: